Bookmark and Share
Track history (hours):
 

Traveller

Last reported at 2014-Apr-24 08:12 UTC. Time now 2014-Apr-24 11:04 UTC.
Position N 49°39' W 001°36'.

Length 101 m; beam 20 m.

Type: Cargo ship. MMSI: 246111000.

NotesDate/timePositionNaut miles runAvg speedWind from/ knotsBaromVisibWave heightAir tempDewpointWater temp
2014-Apr-24 08:12N 49°39' W 001°36'  
2014-Apr-21 18:16N 38°02' W 009°38'1114.0
2014-Apr-21 17:31N 37°51' W 009°35'1413.8
2014-Apr-21 16:31N 37°38' W 009°30'6711.2
2014-Apr-21 10:30N 36°43' W 008°42'1213.1
2014-Apr-21 09:33N 36°44' W 008°26'1313.2
2014-Apr-21 08:33N 36°44' W 008°10'  
2014-Apr-18 18:00N 36°42' W 006°24'56 4.7 200 / 101013.9 5.4 18.215.5
2014-Apr-18 06:00N 35°54' W 005°48'13 8.9 210 / 141020.3 5.4 0.516.814.2
2014-Apr-18 04:34N 35°58' W 005°33'1212.4
2014-Apr-18 03:34N 36°02' W 005°19'14715.4
2014-Apr-17 18:00N 36°24' W 002°18'10614.2 080 / 161018.610.8 0.521.115.5
2014-Apr-17 10:30N 37°32' W 000°36'1414.7
2014-Apr-17 09:32N 37°43' W 000°24'4813.6
2014-Apr-17 06:00N 38°18' E 000°18'2815.6 030 / 151018.9 5.4 0.515.8 9.6
2014-Apr-17 04:12N 38°39' E 000°42'1014.8
2014-Apr-17 03:32N 38°46' E 000°50'1614.4
2014-Apr-17 02:28N 38°58' E 001°03'1314.4
2014-Apr-17 01:33N 39°07' E 001°15'1414.4
2014-Apr-17 00:33N 39°17' E 001°29'1514.5
2014-Apr-16 23:33N 39°27' E 001°43'1414.5
2014-Apr-16 22:33N 39°37' E 001°57'1514.7
2014-Apr-16 21:33N 39°46' E 002°11'1515.4
2014-Apr-16 20:33N 39°56' E 002°26'1414.4
2014-Apr-16 19:34N 40°06' E 002°40'1514.9
2014-Apr-16 18:33N 40°16' E 002°55'1615.6
2014-Apr-16 17:33N 40°26' E 003°10'1514.9
2014-Apr-16 16:33N 40°36' E 003°24'1515.0
2014-Apr-16 15:33N 40°46' E 003°39'1414.5
2014-Apr-16 14:33N 40°56' E 003°53'1614.2
2014-Apr-16 13:25N 41°07' E 004°08'1515.4
2014-Apr-16 12:27N 41°17' E 004°23'1614.7
2014-Apr-16 11:23N 41°28' E 004°38'1315.2
2014-Apr-16 10:29N 41°38' E 004°51'1415.3
2014-Apr-16 09:33N 41°48' E 005°04'1614.3
2014-Apr-16 08:25N 41°60' E 005°19'1515.7
2014-Apr-16 07:28N 42°10' E 005°34'1413.9
2014-Apr-16 06:26N 42°20' E 005°48'1213.3
2014-Apr-16 05:33N 42°28' E 005°59'1413.7
2014-Apr-16 04:33N 42°37' E 006°13'1413.8
2014-Apr-16 03:33N 42°46' E 006°28'1514.6
2014-Apr-16 02:33N 42°55' E 006°43'4314.1
2014-Apr-15 23:30N 43°23' E 007°28'2814.2
2014-Apr-15 21:30N 43°41' E 007°58'1212.9
2014-Apr-15 20:33N 43°49' E 008°11'1413.5
2014-Apr-15 19:33N 43°58' E 008°25'10 9.9
2014-Apr-15 18:33N 44°05' E 008°35'1312.6
2014-Apr-15 17:34N 44°12' E 008°49'8 8.0
2014-Apr-15 16:33N 44°18' E 008°57'7 6.6
2014-Apr-15 15:33N 44°24' E 008°53'0 0.2
2014-Apr-15 14:31N 44°24' E 008°54'0 0.0
2014-Apr-15 12:31N 44°24' E 008°54'0 0.0
2014-Apr-15 11:31N 44°24' E 008°54'0 0.0
2014-Apr-15 08:31N 44°24' E 008°54'0 0.0
2014-Apr-15 07:31N 44°24' E 008°54'0 0.0
2014-Apr-15 05:31N 44°24' E 008°54'0 0.0
2014-Apr-15 03:31N 44°24' E 008°54'0 0.0
2014-Apr-15 01:31N 44°24' E 008°54'0 0.0
2014-Apr-15 00:31N 44°24' E 008°54'0 0.0
2014-Apr-14 22:31N 44°24' E 008°54'0 0.0
2014-Apr-14 21:31N 44°24' E 008°54'0 0.0
2014-Apr-14 20:31N 44°24' E 008°54'0 0.0
2014-Apr-14 19:31N 44°24' E 008°54'0 0.0
2014-Apr-14 18:31N 44°24' E 008°54'0 0.0
2014-Apr-14 17:31N 44°24' E 008°54'0 0.0
2014-Apr-14 16:31N 44°24' E 008°54'0 0.0
2014-Apr-14 15:31N 44°24' E 008°54'0 0.0
2014-Apr-14 14:31N 44°24' E 008°54'0 0.0
2014-Apr-14 13:31N 44°24' E 008°54'0 0.0
2014-Apr-14 11:31N 44°24' E 008°54'0 0.0
2014-Apr-14 10:31N 44°24' E 008°54'0 0.0
2014-Apr-14 09:31N 44°24' E 008°54'0 0.0
2014-Apr-14 08:31N 44°24' E 008°54'  

Dump ship's entire track history

sailing weather and tide predictions

Traveller — PHAM — position and weather